createdAt,value
2023-03-16T08:07:22.173Z,3.42
2023-03-16T08:08:23.504Z,3.91
2023-03-16T08:09:23.360Z,3.72
2023-03-16T08:10:23.186Z,3.42
2023-03-16T08:11:23.115Z,3.42
2023-03-16T08:12:23.102Z,3.26
2023-03-16T08:13:23.080Z,3.40
2023-03-16T08:14:23.088Z,3.47
2023-03-16T08:15:23.045Z,3.69
2023-03-16T08:16:23.056Z,3.83
2023-03-16T08:17:23.036Z,4.27
2023-03-16T08:18:23.018Z,3.60
2023-03-16T08:19:23.043Z,3.51
2023-03-16T08:20:22.980Z,3.84
2023-03-16T08:21:22.970Z,4.58
2023-03-16T08:22:22.990Z,4.51
2023-03-16T08:23:22.958Z,4.60
2023-03-16T08:24:22.950Z,4.82
2023-03-16T08:25:22.969Z,5.33
2023-03-16T08:26:22.947Z,5.51
2023-03-16T08:27:22.935Z,5.49
2023-03-16T08:28:22.890Z,6.04
2023-03-16T08:29:22.894Z,6.71
2023-03-16T08:30:22.912Z,5.71
2023-03-16T08:31:22.973Z,5.40
2023-03-16T08:32:22.886Z,5.21
2023-03-16T08:33:23.504Z,5.27
2023-03-16T08:34:22.838Z,5.85
2023-03-16T08:35:22.837Z,5.63
2023-03-16T08:36:22.823Z,5.68
2023-03-16T08:37:22.806Z,6.09
2023-03-16T08:38:22.793Z,6.17
2023-03-16T08:39:22.824Z,6.33
2023-03-16T08:40:22.782Z,6.00
2023-03-16T08:41:22.770Z,5.96
2023-03-16T08:42:22.734Z,6.49
2023-03-16T08:43:22.747Z,5.83
2023-03-16T08:44:22.807Z,6.09
2023-03-16T08:45:22.709Z,6.15
2023-03-16T08:46:22.730Z,5.89
2023-03-16T08:47:22.697Z,5.83
2023-03-16T08:48:22.688Z,5.74
2023-03-16T08:49:22.674Z,5.61
2023-03-16T08:50:22.656Z,5.07
2023-03-16T08:51:22.656Z,4.55
2023-03-16T08:52:23.082Z,4.37
2023-03-16T08:53:36.730Z,4.50
2023-03-16T08:54:22.645Z,4.22
2023-03-16T08:55:22.676Z,4.06
2023-03-16T08:56:22.607Z,3.78
2023-03-16T08:57:22.639Z,3.70
2023-03-16T08:58:22.584Z,4.06
2023-03-16T08:59:29.807Z,4.16
2023-03-16T09:00:23.557Z,4.47
2023-03-16T09:01:22.626Z,4.32
2023-03-16T09:02:22.596Z,4.33
2023-03-16T09:03:22.506Z,4.42
2023-03-16T09:04:22.588Z,4.54
2023-03-16T09:05:22.532Z,4.50
2023-03-16T09:06:22.521Z,4.78
2023-03-16T09:07:22.464Z,4.67
2023-03-16T09:08:22.491Z,4.84
2023-03-16T09:09:22.438Z,4.80
2023-03-16T09:10:22.434Z,4.86
2023-03-16T09:11:22.450Z,5.22
2023-03-16T09:12:22.491Z,5.30
2023-03-16T09:13:22.456Z,5.06
2023-03-16T09:14:22.405Z,4.89
2023-03-16T09:15:22.412Z,4.80
2023-03-16T09:16:22.374Z,5.24
2023-03-16T09:17:22.381Z,5.63
2023-03-16T09:18:22.403Z,5.39
2023-03-16T09:19:22.349Z,5.58
2023-03-16T09:20:26.437Z,5.10
2023-03-16T09:21:23.306Z,5.17
2023-03-16T09:22:22.291Z,5.46
2023-03-16T09:23:22.296Z,5.91
2023-03-16T09:24:23.311Z,5.94
2023-03-16T09:25:22.289Z,6.38
2023-03-16T09:26:22.250Z,6.70
2023-03-16T09:27:22.308Z,6.81
2023-03-16T09:28:22.327Z,6.70
2023-03-16T09:29:23.246Z,6.55
2023-03-16T09:30:22.205Z,6.40
2023-03-16T09:31:22.226Z,6.46
2023-03-16T09:32:22.171Z,6.95
2023-03-16T09:33:22.180Z,6.76
2023-03-16T09:34:22.155Z,6.66
2023-03-16T09:35:22.169Z,6.44
2023-03-16T09:36:22.116Z,6.58
2023-03-16T09:37:22.127Z,6.18
2023-03-16T09:38:22.114Z,6.69
2023-03-16T09:39:22.082Z,7.12
2023-03-16T09:40:22.241Z,7.06
2023-03-16T09:41:22.052Z,7.06
2023-03-16T09:42:22.062Z,7.27
2023-03-16T09:43:22.055Z,7.55
2023-03-16T09:44:22.027Z,7.64
2023-03-16T09:45:22.083Z,7.75
2023-03-16T09:46:22.066Z,8.05
2023-03-16T09:47:21.985Z,7.48
2023-03-16T09:48:21.977Z,7.48
2023-03-16T09:49:21.966Z,7.85
2023-03-16T09:50:22.386Z,7.87
2023-03-16T09:51:22.002Z,7.06
2023-03-16T09:52:21.914Z,6.48
2023-03-16T09:53:21.892Z,7.06
2023-03-16T09:54:21.907Z,7.60
2023-03-16T09:55:21.884Z,7.43
2023-03-16T09:56:21.894Z,6.69
2023-03-16T09:57:21.876Z,7.27
2023-03-16T09:58:21.875Z,7.24
2023-03-16T09:59:22.181Z,7.46
2023-03-16T10:00:21.840Z,7.27
2023-03-16T10:01:21.936Z,7.85
2023-03-16T10:02:21.805Z,7.95
2023-03-16T10:03:21.806Z,7.58
2023-03-16T10:04:21.801Z,7.92
2023-03-16T10:05:21.762Z,7.71
2023-03-16T10:06:21.780Z,7.28
2023-03-16T10:07:21.739Z,7.07
2023-03-16T10:08:21.749Z,7.24
2023-03-16T10:09:21.725Z,7.21
2023-03-16T10:10:21.725Z,7.53
2023-03-16T10:11:21.744Z,7.67
2023-03-16T10:12:21.707Z,8.20
2023-03-16T10:13:21.680Z,8.44
2023-03-16T10:14:21.657Z,8.83
2023-03-16T10:15:21.678Z,9.08
2023-03-16T10:16:21.685Z,8.86
2023-03-16T10:17:21.696Z,8.15
2023-03-16T10:18:21.629Z,7.98
2023-03-16T10:19:21.610Z,7.30
2023-03-16T10:20:21.588Z,7.46
2023-03-16T10:21:21.571Z,8.33
2023-03-16T10:22:22.599Z,8.76
2023-03-16T10:23:21.548Z,8.04
2023-03-16T10:24:21.533Z,7.69
2023-03-16T10:25:21.531Z,7.86
2023-03-16T10:26:21.513Z,8.02
2023-03-16T10:27:21.528Z,7.92
2023-03-16T10:28:21.510Z,8.20
2023-03-16T10:29:21.500Z,9.20
2023-03-16T10:30:21.579Z,9.68
2023-03-16T10:31:21.513Z,9.50
2023-03-16T10:32:21.468Z,9.31
2023-03-16T10:33:21.463Z,8.34
2023-03-16T10:34:21.432Z,8.95
2023-03-16T10:35:21.611Z,8.62
2023-03-16T10:36:21.406Z,8.65
2023-03-16T10:37:21.433Z,8.83
2023-03-16T10:38:21.411Z,8.70
2023-03-16T10:39:21.379Z,8.02
2023-03-16T10:40:21.402Z,7.83
2023-03-16T10:41:21.379Z,8.25
2023-03-16T10:42:21.483Z,8.70
2023-03-16T10:43:21.338Z,8.96
2023-03-16T10:44:21.320Z,8.50
2023-03-16T10:45:22.034Z,8.15
2023-03-16T10:46:21.385Z,8.50
2023-03-16T10:47:21.399Z,8.48
2023-03-16T10:48:21.301Z,8.56
2023-03-16T10:49:21.253Z,8.30
2023-03-16T10:50:21.283Z,7.80
2023-03-16T10:51:21.255Z,7.85
2023-03-16T10:52:21.243Z,8.43
2023-03-16T10:53:21.224Z,8.70
2023-03-16T10:54:21.871Z,8.48
2023-03-16T10:55:21.197Z,8.04
2023-03-16T10:56:21.170Z,8.59
2023-03-16T10:57:21.186Z,8.76
2023-03-16T10:58:21.181Z,8.98
2023-03-16T10:59:21.152Z,8.68
2023-03-16T11:00:21.133Z,8.38
2023-03-16T11:01:21.170Z,8.40
2023-03-16T11:02:21.125Z,8.50
2023-03-16T11:03:21.113Z,8.80
2023-03-16T11:04:21.179Z,9.05
2023-03-16T11:05:21.091Z,8.10
2023-03-16T11:06:21.105Z,8.40
2023-03-16T11:07:21.070Z,8.02
2023-03-16T11:08:21.068Z,8.20
2023-03-16T11:09:21.035Z,7.85
2023-03-16T11:10:21.029Z,8.28
2023-03-16T11:11:21.030Z,8.41
2023-03-16T11:12:21.000Z,8.53
2023-03-16T11:13:21.036Z,8.50
2023-03-16T11:14:21.032Z,8.25
2023-03-16T11:15:26.023Z,8.18
2023-03-16T11:16:22.079Z,7.97
2023-03-16T11:17:20.945Z,7.83
2023-03-16T11:18:21.013Z,7.87
2023-03-16T11:19:20.941Z,7.89
2023-03-16T11:20:20.925Z,7.75
2023-03-16T11:21:20.947Z,7.55
2023-03-16T11:22:20.901Z,7.64
2023-03-16T11:23:20.932Z,8.15
2023-03-16T11:24:20.909Z,8.25
2023-03-16T11:25:20.837Z,8.10
2023-03-16T11:26:20.839Z,7.58
2023-03-16T11:27:20.841Z,7.50
2023-03-16T11:28:20.834Z,7.67
2023-03-16T11:29:20.831Z,7.95
2023-03-16T11:30:21.025Z,8.08
2023-03-16T11:31:21.081Z,8.18
2023-03-16T11:32:20.815Z,8.79
2023-03-16T11:33:20.891Z,8.86
2023-03-16T11:34:20.856Z,8.83
2023-03-16T11:35:20.832Z,8.95
2023-03-16T11:36:20.794Z,8.89
2023-03-16T11:37:20.807Z,9.10
2023-03-16T11:38:20.741Z,8.96
2023-03-16T11:39:20.978Z,8.55
2023-03-16T11:40:22.141Z,8.12
2023-03-16T11:41:20.830Z,8.26
2023-03-16T11:42:20.964Z,8.08
2023-03-16T11:43:20.718Z,8.05
2023-03-16T11:44:20.636Z,8.23
2023-03-16T11:45:20.824Z,8.45
2023-03-16T11:46:21.445Z,8.59
2023-03-16T11:47:20.927Z,8.91
2023-03-16T11:48:21.078Z,8.30
2023-03-16T11:49:20.627Z,7.68
2023-03-16T11:50:20.857Z,7.12
2023-03-16T12:12:22.484Z,6.99
2023-03-16T12:13:23.689Z,7.17
2023-03-16T12:14:24.348Z,7.16
2023-03-16T12:15:23.497Z,7.60
2023-03-16T12:16:23.466Z,7.69
2023-03-16T12:17:23.462Z,7.67
2023-03-16T12:18:23.471Z,7.85
2023-03-16T12:19:23.489Z,7.92
2023-03-16T12:20:23.445Z,8.23
2023-03-16T12:21:23.412Z,7.92
2023-03-16T12:22:23.376Z,7.72
2023-03-16T12:23:23.447Z,7.86
2023-03-16T12:24:23.340Z,7.98
2023-03-16T12:25:23.350Z,7.85
2023-03-16T12:26:23.365Z,7.79
2023-03-16T12:27:23.322Z,8.20
2023-03-16T12:28:23.311Z,8.12
2023-03-16T12:29:23.284Z,8.10
2023-03-16T12:30:23.290Z,8.08
2023-03-16T12:31:23.314Z,8.08
2023-03-16T12:32:23.277Z,8.44
2023-03-16T12:33:23.276Z,8.45
2023-03-16T12:34:23.247Z,8.59
2023-03-16T12:35:23.250Z,8.65
2023-03-16T12:36:23.232Z,8.56
2023-03-16T12:37:23.186Z,8.48
2023-03-16T12:38:23.235Z,8.70
2023-03-16T12:39:23.181Z,9.05
2023-03-16T12:40:23.185Z,9.04
2023-03-16T12:41:23.164Z,9.04
2023-03-16T12:42:23.160Z,8.65
2023-03-16T12:43:23.144Z,7.85
2023-03-16T12:44:23.113Z,8.05
2023-03-16T12:45:23.114Z,7.87
2023-03-16T12:46:23.247Z,7.87
2023-03-16T12:47:23.087Z,7.82
2023-03-16T12:48:23.111Z,8.08
2023-03-16T12:49:23.075Z,8.33
2023-03-16T12:50:23.045Z,8.16
2023-03-16T12:51:23.042Z,8.63
2023-03-16T12:52:23.002Z,9.01
2023-03-16T12:53:22.995Z,9.13
2023-03-16T12:54:23.019Z,9.60
2023-03-16T12:55:22.984Z,9.56
2023-03-16T12:56:22.962Z,9.56
2023-03-16T12:57:22.950Z,9.38
2023-03-16T12:58:22.988Z,8.55
2023-03-16T12:59:22.966Z,8.40
2023-03-16T13:00:22.899Z,8.34
2023-03-16T13:01:23.021Z,8.41
2023-03-16T13:02:22.930Z,8.45
2023-03-16T13:03:22.865Z,8.44
2023-03-16T13:04:23.053Z,8.11
2023-03-16T13:05:22.863Z,8.12
2023-03-16T13:06:22.856Z,8.29
2023-03-16T13:07:22.860Z,8.45
2023-03-16T13:08:22.940Z,8.26
2023-03-16T13:09:22.977Z,8.50
2023-03-16T13:10:22.857Z,8.29
2023-03-16T13:11:22.788Z,8.41
2023-03-16T13:12:22.792Z,8.40
2023-03-16T13:13:22.761Z,8.40
2023-03-16T13:14:22.828Z,8.29
2023-03-16T13:15:22.731Z,8.38
2023-03-16T13:16:22.806Z,8.56
2023-03-16T13:17:22.862Z,8.15
2023-03-16T13:18:22.826Z,8.81
2023-03-16T13:19:22.705Z,9.18
2023-03-16T13:20:30.303Z,8.62
2023-03-16T13:21:22.691Z,8.77
2023-03-16T13:22:22.675Z,8.66
2023-03-16T13:23:22.686Z,8.29
2023-03-16T13:24:22.620Z,8.10
2023-03-16T13:25:22.711Z,7.89
2023-03-16T13:26:22.601Z,7.86
2023-03-16T13:27:22.620Z,7.67
2023-03-16T13:28:22.573Z,7.45
2023-03-16T13:29:23.643Z,7.37
2023-03-16T13:30:22.619Z,7.49
2023-03-16T13:31:22.615Z,7.48
2023-03-16T13:32:22.542Z,7.49
2023-03-16T13:33:22.516Z,7.28
2023-03-16T13:34:23.518Z,7.12
2023-03-16T13:35:22.479Z,7.12
2023-03-16T13:36:22.513Z,6.92
2023-03-16T13:37:22.488Z,6.85
2023-03-16T13:38:23.318Z,6.97
2023-03-16T13:39:22.648Z,7.16
2023-03-16T13:40:22.447Z,7.25
2023-03-16T13:41:22.416Z,7.27
2023-03-16T13:42:22.454Z,7.32
2023-03-16T13:43:22.418Z,7.43
2023-03-16T13:44:22.396Z,7.50
2023-03-16T13:45:22.414Z,7.49
2023-03-16T13:46:22.520Z,7.52
2023-03-16T13:47:22.392Z,7.50
2023-03-16T13:48:22.352Z,7.50
2023-03-16T13:49:22.364Z,7.45
2023-03-16T13:50:22.331Z,7.63
2023-03-16T13:51:22.336Z,7.35
2023-03-16T13:52:22.350Z,7.35
2023-03-16T13:53:22.297Z,7.35
2023-03-16T13:54:22.285Z,7.40
2023-03-16T13:55:22.296Z,7.37
2023-03-16T13:56:22.285Z,7.32
2023-03-16T13:57:22.261Z,7.48
2023-03-16T13:58:22.239Z,7.28
2023-03-16T13:59:22.200Z,7.31
2023-03-16T14:00:22.197Z,7.31
2023-03-16T14:01:22.290Z,7.25
2023-03-16T14:02:22.218Z,7.37
2023-03-16T14:03:22.198Z,7.30
2023-03-16T14:04:22.653Z,7.21
2023-03-16T14:05:22.142Z,7.13
2023-03-16T14:06:22.141Z,7.23
2023-03-16T14:07:23.141Z,7.31
2023-03-16T14:08:22.136Z,7.27
2023-03-16T14:09:22.115Z,7.39
2023-03-16T14:10:22.091Z,7.48
2023-03-16T14:11:22.098Z,7.48
2023-03-16T14:12:22.102Z,7.63
2023-03-16T14:13:22.572Z,7.61
2023-03-16T14:14:22.061Z,7.35
2023-03-16T14:15:22.035Z,7.37
2023-03-16T14:16:22.069Z,7.43
2023-03-16T14:17:22.036Z,7.39
2023-03-16T14:18:22.018Z,7.57
2023-03-16T14:19:22.006Z,7.52
2023-03-16T14:20:21.961Z,7.46
2023-03-16T14:21:21.964Z,7.28
2023-03-16T14:22:21.945Z,7.24
2023-03-16T14:23:22.973Z,7.30
2023-03-16T14:24:21.931Z,7.23
2023-03-16T14:25:21.912Z,7.24
2023-03-16T14:26:22.527Z,7.42
2023-03-16T14:27:21.910Z,7.40
2023-03-16T14:28:21.871Z,7.53
2023-03-16T14:29:21.869Z,7.49
2023-03-16T14:30:21.829Z,7.46
2023-03-16T14:31:21.969Z,7.37
2023-03-16T14:32:21.797Z,7.35
2023-03-16T14:33:21.823Z,7.35
2023-03-16T14:34:21.808Z,7.43
2023-03-16T14:35:21.786Z,7.69
2023-03-16T14:36:21.787Z,7.93
2023-03-16T14:37:21.764Z,8.43
2023-03-16T14:38:21.842Z,8.38
2023-03-16T14:39:21.742Z,8.29
2023-03-16T14:40:22.725Z,8.43
2023-03-16T14:41:22.711Z,8.33
2023-03-16T14:42:21.695Z,8.33
2023-03-16T14:43:21.741Z,8.16
2023-03-16T14:44:21.691Z,8.10
2023-03-16T14:45:21.645Z,8.04
2023-03-16T14:46:21.696Z,7.86
2023-03-16T14:47:21.617Z,7.61
2023-03-16T14:48:21.627Z,7.67
2023-03-16T14:49:21.632Z,7.64
2023-03-16T14:50:21.590Z,7.61
2023-03-16T14:51:21.583Z,7.57
2023-03-16T14:52:21.582Z,7.72
2023-03-16T14:53:21.571Z,7.69
2023-03-16T14:54:21.567Z,7.60
2023-03-16T14:55:21.545Z,7.53
2023-03-16T14:56:21.525Z,7.45
2023-03-16T14:57:21.509Z,7.48
2023-03-16T14:58:21.531Z,7.48
2023-03-16T14:59:21.496Z,7.53
2023-03-16T15:00:21.489Z,7.50
2023-03-16T15:01:21.505Z,7.32
2023-03-16T15:02:21.531Z,7.42
2023-03-16T15:03:21.445Z,7.35
2023-03-16T15:04:21.479Z,7.28
2023-03-16T15:05:21.400Z,7.25
2023-03-16T15:06:21.421Z,7.30
2023-03-16T15:07:21.413Z,7.12
2023-03-16T15:08:22.285Z,7.21
2023-03-16T15:09:21.377Z,7.21
2023-03-16T15:10:21.340Z,7.21
2023-03-16T15:11:21.398Z,7.10
2023-03-16T15:12:21.326Z,7.10
2023-03-16T15:13:21.314Z,7.13
2023-03-16T15:14:21.328Z,7.05
2023-03-16T15:15:21.298Z,7.07
2023-03-16T15:16:21.333Z,7.10
2023-03-16T15:17:21.315Z,6.98
2023-03-16T15:18:21.266Z,6.85
2023-03-16T15:19:21.276Z,6.94
2023-03-16T15:20:22.668Z,6.98
2023-03-16T15:21:21.250Z,7.06
2023-03-16T15:22:21.220Z,7.15
2023-03-16T15:23:21.193Z,7.27
2023-03-16T15:24:21.195Z,7.10
2023-03-16T15:25:21.203Z,7.06
2023-03-16T15:26:23.752Z,7.09
2023-03-16T15:27:21.220Z,7.13
2023-03-16T15:28:21.158Z,7.20
2023-03-16T15:29:21.147Z,7.25
2023-03-16T15:30:21.146Z,7.42
2023-03-16T15:31:21.168Z,7.30
2023-03-16T15:32:21.111Z,7.37
2023-03-16T15:33:21.131Z,7.48
2023-03-16T15:34:21.085Z,7.49
2023-03-16T15:35:21.118Z,7.58
2023-03-16T15:36:21.089Z,7.53
2023-03-16T15:37:21.057Z,7.50
2023-03-16T15:38:21.025Z,7.37
2023-03-16T15:39:21.061Z,7.50
2023-03-16T15:40:21.066Z,7.45
2023-03-16T15:41:20.992Z,7.46
2023-03-16T15:42:21.039Z,7.48
2023-03-16T15:43:21.024Z,7.49
2023-03-16T15:44:21.215Z,7.50
2023-03-16T15:45:21.060Z,7.50
2023-03-16T15:46:21.016Z,7.45
2023-03-16T15:47:20.947Z,7.42
2023-03-16T15:48:20.926Z,7.35
2023-03-16T15:49:20.977Z,7.25
2023-03-16T15:50:20.891Z,7.24
2023-03-16T15:51:20.939Z,7.28
2023-03-16T15:52:20.859Z,7.27
2023-03-16T15:53:30.358Z,7.20
2023-03-16T15:54:20.899Z,7.20
2023-03-16T15:55:20.818Z,7.13
2023-03-16T15:56:20.801Z,7.23
2023-03-16T15:57:20.841Z,7.07
2023-03-16T15:58:20.787Z,7.30
2023-03-16T15:59:20.820Z,7.23
2023-03-16T16:00:20.763Z,7.21
2023-03-16T16:01:20.855Z,7.07
2023-03-16T16:02:20.757Z,6.88
2023-03-16T16:03:20.802Z,6.95
2023-03-16T16:04:20.778Z,7.09
2023-03-16T16:05:20.915Z,7.03
2023-03-16T16:06:21.408Z,7.09
2023-03-16T16:07:20.714Z,6.99
2023-03-16T16:08:20.757Z,6.92
2023-03-16T16:09:20.666Z,6.91
2023-03-16T16:10:20.652Z,6.98
2023-03-16T16:11:20.644Z,6.91
2023-03-16T16:12:20.678Z,6.94
2023-03-16T16:13:21.413Z,6.98
2023-03-16T16:14:20.617Z,6.87
2023-03-16T16:15:20.592Z,6.85
2023-03-16T16:16:20.692Z,6.89
2023-03-16T16:17:22.759Z,6.92
2023-03-16T16:18:21.884Z,6.89
2023-03-16T16:19:21.682Z,6.92
2023-03-16T16:20:20.589Z,6.97
2023-03-16T16:21:21.846Z,7.09
2023-03-16T16:22:20.542Z,7.05
2023-03-16T16:23:20.541Z,7.13
2023-03-16T16:24:20.500Z,7.02
2023-03-16T16:25:20.479Z,7.10
2023-03-16T16:26:20.473Z,7.13
2023-03-16T16:27:20.443Z,6.99
2023-03-16T16:28:20.504Z,6.95
2023-03-16T16:29:20.449Z,6.97
2023-03-16T16:30:20.424Z,7.10
2023-03-16T16:31:20.457Z,6.99
2023-03-16T16:32:20.417Z,6.94
2023-03-16T16:33:20.448Z,6.98
2023-03-16T16:34:20.412Z,6.95
2023-03-16T16:35:20.407Z,7.07
2023-03-16T16:36:20.387Z,6.97
2023-03-16T16:37:20.345Z,6.98
2023-03-16T16:38:20.318Z,7.07
2023-03-16T16:39:20.370Z,7.03
2023-03-16T16:40:20.896Z,6.97
2023-03-16T16:41:20.274Z,6.94
2023-03-16T16:42:20.274Z,6.77
2023-03-16T16:43:20.240Z,6.88
2023-03-16T16:44:20.279Z,6.92
2023-03-16T16:45:20.285Z,6.76
2023-03-16T16:46:20.307Z,6.84
2023-03-16T16:47:20.253Z,6.74
2023-03-16T16:48:20.214Z,6.70
2023-03-16T16:49:20.215Z,6.67
2023-03-16T16:50:20.169Z,6.67
2023-03-16T16:51:20.170Z,6.64
2023-03-16T16:52:20.139Z,6.67
2023-03-16T16:53:20.161Z,6.70
2023-03-16T16:54:20.192Z,6.66
2023-03-16T16:55:20.117Z,6.49
2023-03-16T16:56:20.124Z,6.49
2023-03-16T16:57:20.146Z,6.49
2023-03-16T16:58:24.642Z,6.51
2023-03-16T16:59:20.066Z,6.38
2023-03-16T17:00:20.173Z,6.40
2023-03-16T17:01:20.075Z,6.46
2023-03-16T17:02:20.041Z,6.44
2023-03-16T17:03:20.040Z,6.38
2023-03-16T17:04:20.044Z,6.38
2023-03-16T17:05:20.064Z,6.46
2023-03-16T17:06:19.990Z,6.41
2023-03-16T17:07:20.262Z,6.38
2023-03-16T17:08:19.970Z,6.33
2023-03-16T17:09:19.957Z,6.21
2023-03-16T17:10:19.952Z,6.21
2023-03-16T17:11:19.976Z,6.18
2023-03-16T17:12:19.924Z,6.28
2023-03-16T17:13:19.914Z,6.12
2023-03-16T17:14:19.923Z,6.18
2023-03-16T17:15:20.030Z,6.19
2023-03-16T17:16:19.935Z,6.12
2023-03-16T17:17:19.871Z,6.12
2023-03-16T17:18:19.864Z,6.18
2023-03-16T17:19:19.855Z,6.11
2023-03-16T17:20:19.825Z,6.14
2023-03-16T17:21:19.845Z,6.06
2023-03-16T17:22:19.809Z,6.00
2023-03-16T17:23:19.802Z,6.08
2023-03-16T17:24:19.795Z,5.97
2023-03-16T17:25:19.768Z,6.01
2023-03-16T17:26:19.778Z,5.97
2023-03-16T17:27:19.755Z,6.04
2023-03-16T17:28:19.739Z,6.08
2023-03-16T17:29:19.727Z,6.00
2023-03-16T17:30:19.724Z,5.93
2023-03-16T17:31:19.744Z,5.94
2023-03-16T17:32:19.735Z,5.90
2023-03-16T17:33:19.678Z,5.85
2023-03-16T17:34:19.687Z,5.83
2023-03-16T17:35:19.664Z,5.79
2023-03-16T17:36:19.693Z,5.86
2023-03-16T17:37:19.643Z,5.86
2023-03-16T17:38:19.671Z,5.85
2023-03-16T17:39:19.620Z,5.83
2023-03-16T17:40:19.617Z,5.83
2023-03-16T17:41:19.669Z,5.93
2023-03-16T17:42:19.653Z,5.86
2023-03-16T17:43:23.953Z,5.90
2023-03-16T17:44:20.576Z,5.76
2023-03-16T17:45:19.569Z,5.79
2023-03-16T17:46:19.554Z,5.82
2023-03-16T17:47:19.597Z,5.82
2023-03-16T17:48:19.527Z,5.74
2023-03-16T17:49:19.508Z,5.83
2023-03-16T17:50:19.510Z,5.82
2023-03-16T17:51:19.500Z,5.85
2023-03-16T17:52:19.508Z,5.83
2023-03-16T17:53:20.160Z,5.81
2023-03-16T17:54:19.443Z,5.68
2023-03-16T17:55:19.440Z,5.65
2023-03-16T17:56:19.447Z,5.67
2023-03-16T17:57:19.463Z,5.79
2023-03-16T17:58:19.449Z,5.82
2023-03-16T17:59:19.433Z,5.79
2023-03-16T18:00:19.445Z,5.78
2023-03-16T18:01:19.401Z,5.76
2023-03-16T18:02:20.005Z,5.81
2023-03-16T18:03:19.444Z,5.81
2023-03-16T18:04:19.342Z,5.68
2023-03-16T18:05:19.335Z,5.82
2023-03-16T18:06:19.319Z,5.75
2023-03-16T18:07:19.317Z,5.91
2023-03-16T18:08:19.334Z,5.85
2023-03-16T18:09:19.286Z,5.81
2023-03-16T18:10:19.269Z,5.83
2023-03-16T18:11:19.263Z,5.81
2023-03-16T18:12:19.254Z,5.86
2023-03-16T18:13:19.264Z,5.76
2023-03-16T18:14:19.234Z,5.75
2023-03-16T18:15:19.226Z,5.72
2023-03-16T18:16:19.224Z,5.82
2023-03-16T18:17:19.218Z,5.72
2023-03-16T18:18:19.183Z,5.78
2023-03-16T18:22:08.700Z,5.68
2023-03-16T18:23:08.681Z,5.79
2023-03-16T18:24:08.637Z,5.78
2023-03-16T18:25:08.612Z,5.74
2023-03-16T18:26:08.660Z,5.75
2023-03-16T18:27:09.391Z,5.71
2023-03-16T18:28:08.557Z,5.65
2023-03-16T18:29:08.636Z,5.75
2023-03-16T18:30:08.562Z,5.68
2023-03-16T18:31:08.745Z,5.68
2023-03-16T18:32:08.486Z,5.79
2023-03-16T18:33:08.473Z,5.60
2023-03-16T18:34:08.475Z,5.71
2023-03-16T18:35:08.431Z,5.61
2023-03-16T18:36:08.489Z,5.68
2023-03-16T18:37:08.404Z,5.63
2023-03-16T18:38:08.389Z,5.61
2023-03-16T18:39:08.392Z,5.61
2023-03-16T18:40:08.376Z,5.76
2023-03-16T18:41:08.379Z,5.61
2023-03-16T18:42:08.342Z,5.64
2023-03-16T18:43:08.325Z,5.57
2023-03-16T18:44:08.358Z,5.58
2023-03-16T18:45:08.301Z,5.57
2023-03-16T18:46:08.296Z,5.71
2023-03-16T18:47:08.326Z,5.65
2023-03-16T18:48:08.268Z,5.61
2023-03-16T18:49:08.283Z,5.72
2023-03-16T18:50:08.239Z,5.75
2023-03-16T18:51:08.227Z,5.54
2023-03-16T18:52:08.220Z,5.60
2023-03-16T18:53:08.226Z,5.48
2023-03-16T18:54:08.201Z,5.65
2023-03-16T18:55:08.198Z,5.56
2023-03-16T18:56:08.175Z,5.54
2023-03-16T18:57:08.155Z,5.48
2023-03-16T18:58:08.176Z,5.54
2023-03-16T18:59:08.129Z,5.48
2023-03-16T19:00:08.162Z,5.43
2023-03-16T19:01:08.154Z,5.53
2023-03-16T19:02:08.124Z,5.49
2023-03-16T19:03:08.096Z,5.58
2023-03-16T19:04:08.070Z,5.54
2023-03-16T19:05:08.075Z,5.56
2023-03-16T19:06:08.048Z,5.54
2023-03-16T19:07:10.649Z,5.56
2023-03-16T19:08:08.018Z,5.53
2023-03-16T19:09:08.015Z,5.60
2023-03-16T19:10:08.022Z,5.45
2023-03-16T19:11:07.997Z,5.48
2023-03-16T19:12:08.007Z,5.38
2023-03-16T19:13:07.963Z,5.40
2023-03-16T19:14:07.955Z,5.51
2023-03-16T19:15:07.939Z,5.51
2023-03-16T19:16:07.993Z,5.48
2023-03-16T19:17:07.931Z,5.51
2023-03-16T19:18:08.067Z,5.46
2023-03-16T19:19:07.956Z,5.45
2023-03-16T19:20:07.889Z,5.38
2023-03-16T19:21:07.990Z,5.48
2023-03-16T19:22:07.871Z,5.39
2023-03-16T19:23:07.847Z,5.42
2023-03-16T19:24:07.850Z,5.38
2023-03-16T19:25:07.828Z,5.39
2023-03-16T19:26:07.817Z,5.38
2023-03-16T19:27:07.832Z,5.36
2023-03-16T19:28:08.935Z,5.39
2023-03-16T19:29:08.891Z,5.48
2023-03-16T19:30:08.880Z,5.35
2023-03-16T19:31:08.876Z,5.46
2023-03-16T19:32:09.004Z,5.30
2023-03-16T19:33:08.835Z,5.38
2023-03-16T19:34:08.851Z,5.40
2023-03-16T19:35:08.878Z,5.39
2023-03-16T19:36:08.831Z,5.24
2023-03-16T19:37:08.812Z,5.43
2023-03-16T19:38:08.828Z,5.27
2023-03-16T19:39:08.782Z,5.43
2023-03-16T19:40:08.924Z,5.38
2023-03-16T19:41:08.755Z,5.48
2023-03-16T19:42:11.310Z,5.35
2023-03-16T19:43:08.781Z,5.31
2023-03-16T19:44:08.726Z,5.24
2023-03-16T19:45:08.870Z,5.30
2023-03-16T19:46:08.765Z,5.33
2023-03-16T19:47:08.731Z,5.38
2023-03-16T19:48:08.680Z,5.27
2023-03-16T19:49:08.685Z,5.21
2023-03-16T19:50:08.643Z,5.30
2023-03-16T19:51:08.654Z,5.31
2023-03-16T19:52:08.665Z,5.31
2023-03-16T19:53:08.618Z,5.28
2023-03-16T19:54:08.635Z,5.21
2023-03-16T19:55:08.614Z,5.24
2023-03-16T19:56:08.597Z,5.21
2023-03-16T19:57:08.565Z,5.30
2023-03-16T19:58:08.563Z,5.33
2023-03-16T19:59:08.581Z,5.33
2023-03-16T20:00:09.547Z,5.33
2023-03-16T20:01:08.611Z,5.30
2023-03-16T20:02:08.523Z,5.30
2023-03-16T20:03:08.508Z,5.30
2023-03-16T20:04:08.556Z,5.28
2023-03-16T20:05:08.908Z,5.20
2023-03-16T20:06:08.461Z,5.33
2023-03-16T20:07:08.463Z,5.25
2023-03-16T20:08:08.434Z,5.24
2023-03-16T20:09:08.449Z,5.27
2023-03-16T20:10:08.510Z,5.15
2023-03-16T20:11:08.404Z,5.12
2023-03-16T20:12:08.394Z,5.06
2023-03-16T20:13:08.388Z,5.20
2023-03-16T20:14:08.740Z,5.18
2023-03-16T20:15:08.414Z,5.24
2023-03-16T20:16:08.353Z,5.25
2023-03-16T20:17:08.410Z,5.24
2023-03-16T20:18:08.332Z,5.21
2023-03-16T20:19:08.377Z,5.27
2023-03-16T20:20:08.315Z,5.24
2023-03-16T20:21:08.321Z,5.00
2023-03-16T20:22:08.302Z,5.02
2023-03-16T20:23:08.292Z,4.97
2023-03-16T20:24:08.250Z,4.96
2023-03-16T20:25:08.252Z,5.00
2023-03-16T20:26:08.267Z,5.06
2023-03-16T20:27:08.234Z,5.03
2023-03-16T20:28:08.203Z,5.04
2023-03-16T20:29:09.248Z,5.24
2023-03-16T20:30:08.182Z,5.00
2023-03-16T20:31:08.550Z,5.02
2023-03-16T20:32:08.195Z,4.96
2023-03-16T20:33:08.198Z,4.99
2023-03-16T20:34:08.133Z,5.02
2023-03-16T20:35:08.295Z,4.96
2023-03-16T20:36:08.254Z,5.03
2023-03-16T20:37:08.985Z,4.96
2023-03-16T20:38:08.110Z,5.06
2023-03-16T20:39:08.441Z,4.99
2023-03-16T20:40:08.086Z,5.07
2023-03-16T20:41:08.116Z,5.02
2023-03-16T20:42:08.372Z,5.03
2023-03-16T20:43:09.564Z,4.91
2023-03-16T20:44:08.029Z,4.86
2023-03-16T20:45:08.400Z,4.88
2023-03-16T20:46:08.094Z,4.86
2023-03-16T20:47:08.055Z,4.96
2023-03-16T20:48:08.207Z,4.88
2023-03-16T20:49:08.051Z,4.85
2023-03-16T20:50:07.974Z,4.77
2023-03-16T20:51:07.963Z,4.91
2023-03-16T20:52:07.980Z,4.77
2023-03-16T20:53:07.930Z,4.89
2023-03-16T20:54:08.207Z,4.86
2023-03-16T20:55:07.903Z,4.97
2023-03-16T20:56:07.905Z,4.84
2023-03-16T20:57:07.894Z,4.92
2023-03-16T20:58:07.886Z,4.78
2023-03-16T20:59:07.871Z,4.96
2023-03-16T21:00:08.599Z,4.88
2023-03-16T21:01:07.857Z,4.94
2023-03-16T21:02:07.826Z,4.72
2023-03-16T21:03:07.842Z,4.89
2023-03-16T21:04:07.810Z,4.82
2023-03-16T21:05:07.841Z,4.73
2023-03-16T21:06:07.789Z,4.80
2023-03-16T21:07:07.762Z,4.88
2023-03-16T21:08:07.975Z,4.77
2023-03-16T21:09:08.747Z,4.75
2023-03-16T21:10:07.746Z,4.80
2023-03-16T21:11:07.719Z,4.82
2023-03-16T21:12:07.701Z,4.86
2023-03-16T21:13:07.960Z,4.86
2023-03-16T21:14:07.705Z,4.66
2023-03-16T21:15:07.701Z,4.72
2023-03-16T21:16:07.772Z,4.80
2023-03-16T21:17:07.658Z,4.80
2023-03-16T21:18:07.648Z,4.77
2023-03-16T21:19:07.669Z,4.78
2023-03-16T21:20:07.621Z,4.86
2023-03-16T21:21:07.611Z,4.70
2023-03-16T21:22:07.605Z,4.62
2023-03-16T21:23:07.599Z,4.66
2023-03-16T21:24:07.623Z,4.67
2023-03-16T21:25:07.567Z,4.65
2023-03-16T21:26:07.550Z,4.65
2023-03-16T21:27:07.580Z,4.63
2023-03-16T21:28:07.533Z,4.69
2023-03-16T21:29:07.570Z,4.72
2023-03-16T21:30:07.506Z,4.70
2023-03-16T21:31:07.560Z,4.78
2023-03-16T21:32:07.485Z,4.70
2023-03-16T21:33:07.526Z,4.69
2023-03-16T21:34:07.523Z,4.86
2023-03-16T21:35:07.460Z,4.69
2023-03-16T21:36:07.445Z,4.75
2023-03-16T21:37:07.427Z,4.86
2023-03-16T21:38:07.412Z,4.78
2023-03-16T21:39:07.411Z,4.73
2023-03-16T21:40:07.404Z,4.86
2023-03-16T21:41:07.407Z,4.78
2023-03-16T21:42:07.392Z,4.77
2023-03-16T21:43:08.577Z,4.88
2023-03-16T21:44:07.370Z,4.80
2023-03-16T21:45:07.378Z,4.70
2023-03-16T21:46:07.338Z,4.75
2023-03-16T21:47:07.318Z,4.86
2023-03-16T21:48:07.300Z,4.70
2023-03-16T21:49:07.294Z,4.82